sensor_id;sensor_type;location;lat;lon;timestamp;pressure;altitude;pressure_sealevel;temperature;humidity
60832;BME280;46665;51.558;-0.448;2023-10-19T00:02:13;98012.22;;;13.14;100.00
60832;BME280;46665;51.558;-0.448;2023-10-19T00:04:59;98020.59;;;13.02;100.00
60832;BME280;46665;51.558;-0.448;2023-10-19T00:07:43;98022.81;;;12.96;100.00
60832;BME280;46665;51.558;-0.448;2023-10-19T00:10:28;98036.47;;;12.96;100.00
60832;BME280;46665;51.558;-0.448;2023-10-19T00:13:18;98032.81;;;12.89;100.00
60832;BME280;46665;51.558;-0.448;2023-10-19T00:16:03;98041.25;;;12.84;100.00
60832;BME280;46665;51.558;-0.448;2023-10-19T00:18:55;98043.97;;;12.84;100.00
60832;BME280;46665;51.558;-0.448;2023-10-19T00:21:43;98048.72;;;12.67;100.00
60832;BME280;46665;51.558;-0.448;2023-10-19T00:24:50;98047.78;;;12.60;100.00
60832;BME280;46665;51.558;-0.448;2023-10-19T00:27:34;98048.84;;;12.55;100.00
60832;BME280;46665;51.558;-0.448;2023-10-19T00:30:18;98050.13;;;12.42;100.00
60832;BME280;46665;51.558;-0.448;2023-10-19T00:33:08;98046.53;;;12.38;100.00
60832;BME280;46665;51.558;-0.448;2023-10-19T00:36:00;98047.53;;;12.29;100.00
60832;BME280;46665;51.558;-0.448;2023-10-19T00:38:51;98053.25;;;12.24;100.00
60832;BME280;46665;51.558;-0.448;2023-10-19T00:41:39;98053.09;;;12.17;100.00
60832;BME280;46665;51.558;-0.448;2023-10-19T00:44:24;98044.75;;;12.10;100.00
60832;BME280;46665;51.558;-0.448;2023-10-19T00:47:28;98054.34;;;12.04;100.00
60832;BME280;46665;51.558;-0.448;2023-10-19T00:50:19;98054.53;;;12.11;100.00
60832;BME280;46665;51.558;-0.448;2023-10-19T00:53:06;98063.03;;;12.09;100.00
60832;BME280;46665;51.558;-0.448;2023-10-19T00:55:52;98065.88;;;12.13;100.00
60832;BME280;46665;51.558;-0.448;2023-10-19T00:58:38;98060.81;;;12.15;100.00
60832;BME280;46665;51.558;-0.448;2023-10-19T01:01:28;98061.38;;;12.21;100.00
60832;BME280;46665;51.558;-0.448;2023-10-19T01:04:13;98055.91;;;12.21;100.00
60832;BME280;46665;51.558;-0.448;2023-10-19T01:07:04;98054.25;;;12.16;100.00
60832;BME280;46665;51.558;-0.448;2023-10-19T01:09:50;98068.03;;;12.23;100.00
60832;BME280;46665;51.558;-0.448;2023-10-19T01:12:39;98072.06;;;12.29;100.00
60832;BME280;46665;51.558;-0.448;2023-10-19T01:15:23;98073.56;;;12.27;100.00
60832;BME280;46665;51.558;-0.448;2023-10-19T01:18:13;98076.75;;;12.29;100.00
60832;BME280;46665;51.558;-0.448;2023-10-19T01:20:58;98065.03;;;12.28;100.00
60832;BME280;46665;51.558;-0.448;2023-10-19T01:23:51;98069.69;;;12.28;100.00
60832;BME280;46665;51.558;-0.448;2023-10-19T01:26:35;98071.28;;;12.29;100.00
60832;BME280;46665;51.558;-0.448;2023-10-19T01:29:21;98075.25;;;12.31;100.00
60832;BME280;46665;51.558;-0.448;2023-10-19T01:32:11;98074.06;;;12.32;100.00
60832;BME280;46665;51.558;-0.448;2023-10-19T01:34:59;98074.44;;;12.31;100.00
60832;BME280;46665;51.558;-0.448;2023-10-19T01:37:43;98068.28;;;12.34;100.00
60832;BME280;46665;51.558;-0.448;2023-10-19T01:40:27;98079.63;;;12.36;100.00
60832;BME280;46665;51.558;-0.448;2023-10-19T01:43:14;98076.47;;;12.34;100.00
60832;BME280;46665;51.558;-0.448;2023-10-19T01:46:04;98082.44;;;12.40;100.00
60832;BME280;46665;51.558;-0.448;2023-10-19T01:48:51;98078.97;;;12.43;100.00
60832;BME280;46665;51.558;-0.448;2023-10-19T01:51:41;98072.41;;;12.44;100.00
60832;BME280;46665;51.558;-0.448;2023-10-19T01:54:27;98066.22;;;12.47;100.00
60832;BME280;46665;51.558;-0.448;2023-10-19T01:57:11;98060.72;;;12.43;100.00
60832;BME280;46665;51.558;-0.448;2023-10-19T01:59:58;98059.25;;;12.49;100.00
60832;BME280;46665;51.558;-0.448;2023-10-19T02:02:42;98058.09;;;12.50;100.00
60832;BME280;46665;51.558;-0.448;2023-10-19T02:05:27;98060.94;;;12.54;100.00
60832;BME280;46665;51.558;-0.448;2023-10-19T02:08:17;98061.00;;;12.57;100.00
60832;BME280;46665;51.558;-0.448;2023-10-19T02:11:01;98050.88;;;12.58;100.00
60832;BME280;46665;51.558;-0.448;2023-10-19T02:13:47;98045.41;;;12.58;100.00
60832;BME280;46665;51.558;-0.448;2023-10-19T02:16:31;98033.72;;;12.57;100.00
60832;BME280;46665;51.558;-0.448;2023-10-19T02:19:17;98040.47;;;12.64;100.00
60832;BME280;46665;51.558;-0.448;2023-10-19T02:22:02;98028.75;;;12.63;100.00
60832;BME280;46665;51.558;-0.448;2023-10-19T02:24:55;98022.16;;;12.64;100.00
60832;BME280;46665;51.558;-0.448;2023-10-19T02:27:39;98014.78;;;12.65;100.00
60832;BME280;46665;51.558;-0.448;2023-10-19T02:30:23;98014.84;;;12.68;100.00
60832;BME280;46665;51.558;-0.448;2023-10-19T02:33:08;98018.72;;;12.67;100.00
60832;BME280;46665;51.558;-0.448;2023-10-19T02:35:52;98010.09;;;12.65;100.00
60832;BME280;46665;51.558;-0.448;2023-10-19T02:38:40;98008.25;;;12.69;100.00
60832;BME280;46665;51.558;-0.448;2023-10-19T02:41:26;97993.81;;;12.69;100.00
60832;BME280;46665;51.558;-0.448;2023-10-19T02:44:18;98007.97;;;12.74;100.00
60832;BME280;46665;51.558;-0.448;2023-10-19T02:47:01;97995.44;;;12.73;100.00
60832;BME280;46665;51.558;-0.448;2023-10-19T02:49:52;97992.38;;;12.75;100.00
60832;BME280;46665;51.558;-0.448;2023-10-19T02:52:39;98008.44;;;12.80;100.00
60832;BME280;46665;51.558;-0.448;2023-10-19T02:55:25;97999.03;;;12.77;100.00
60832;BME280;46665;51.558;-0.448;2023-10-19T02:58:09;98004.22;;;12.83;100.00
60832;BME280;46665;51.558;-0.448;2023-10-19T03:00:54;97994.88;;;12.84;100.00
60832;BME280;46665;51.558;-0.448;2023-10-19T03:03:38;97992.94;;;12.84;100.00
60832;BME280;46665;51.558;-0.448;2023-10-19T03:06:23;97987.91;;;12.86;100.00
60832;BME280;46665;51.558;-0.448;2023-10-19T03:09:08;97990.72;;;12.90;100.00
60832;BME280;46665;51.558;-0.448;2023-10-19T03:12:25;97980.66;;;12.94;100.00
60832;BME280;46665;51.558;-0.448;2023-10-19T03:15:10;97970.56;;;12.98;100.00
60832;BME280;46665;51.558;-0.448;2023-10-19T03:17:57;97968.28;;;13.00;100.00
60832;BME280;46665;51.558;-0.448;2023-10-19T03:20:41;97960.53;;;13.02;100.00
60832;BME280;46665;51.558;-0.448;2023-10-19T03:23:25;97956.63;;;13.03;100.00
60832;BME280;46665;51.558;-0.448;2023-10-19T03:26:10;97957.50;;;13.07;100.00
60832;BME280;46665;51.558;-0.448;2023-10-19T03:29:13;97962.19;;;13.07;100.00
60832;BME280;46665;51.558;-0.448;2023-10-19T03:31:58;97957.19;;;13.12;100.00
60832;BME280;46665;51.558;-0.448;2023-10-19T03:34:45;97966.22;;;13.16;100.00
60832;BME280;46665;51.558;-0.448;2023-10-19T03:37:33;97965.50;;;13.19;100.00
60832;BME280;46665;51.558;-0.448;2023-10-19T03:40:19;97972.25;;;13.26;100.00
60832;BME280;46665;51.558;-0.448;2023-10-19T03:43:11;97955.81;;;13.22;100.00
60832;BME280;46665;51.558;-0.448;2023-10-19T03:46:03;97962.22;;;13.30;100.00
60832;BME280;46665;51.558;-0.448;2023-10-19T03:48:54;97960.75;;;13.36;100.00
60832;BME280;46665;51.558;-0.448;2023-10-19T03:51:42;97955.41;;;13.43;100.00
60832;BME280;46665;51.558;-0.448;2023-10-19T03:54:42;97943.75;;;13.46;100.00
60832;BME280;46665;51.558;-0.448;2023-10-19T03:57:27;97942.28;;;13.52;100.00
60832;BME280;46665;51.558;-0.448;2023-10-19T04:00:13;97943.59;;;13.62;100.00
60832;BME280;46665;51.558;-0.448;2023-10-19T04:03:03;97932.34;;;13.67;100.00
60832;BME280;46665;51.558;-0.448;2023-10-19T04:05:47;97932.72;;;13.65;100.00
60832;BME280;46665;51.558;-0.448;2023-10-19T04:08:33;97943.28;;;13.67;100.00
60832;BME280;46665;51.558;-0.448;2023-10-19T04:11:21;97952.31;;;13.71;100.00
60832;BME280;46665;51.558;-0.448;2023-10-19T04:14:17;97942.25;;;13.75;100.00
60832;BME280;46665;51.558;-0.448;2023-10-19T04:17:02;97932.88;;;13.76;100.00
60832;BME280;46665;51.558;-0.448;2023-10-19T04:19:47;97931.72;;;13.77;100.00
60832;BME280;46665;51.558;-0.448;2023-10-19T04:22:32;97934.50;;;13.81;100.00
60832;BME280;46665;51.558;-0.448;2023-10-19T04:25:18;97930.63;;;13.82;100.00
60832;BME280;46665;51.558;-0.448;2023-10-19T04:28:20;97926.78;;;13.86;100.00
60832;BME280;46665;51.558;-0.448;2023-10-19T04:31:14;97911.13;;;13.83;100.00
60832;BME280;46665;51.558;-0.448;2023-10-19T04:33:58;97917.78;;;13.86;100.00
60832;BME280;46665;51.558;-0.448;2023-10-19T04:36:42;97913.44;;;13.81;100.00
60832;BME280;46665;51.558;-0.448;2023-10-19T04:39:27;97910.38;;;13.86;100.00
60832;BME280;46665;51.558;-0.448;2023-10-19T04:42:14;97904.97;;;13.90;100.00
60832;BME280;46665;51.558;-0.448;2023-10-19T04:45:07;97910.44;;;13.90;100.00
60832;BME280;46665;51.558;-0.448;2023-10-19T04:47:52;97908.84;;;13.89;100.00
60832;BME280;46665;51.558;-0.448;2023-10-19T04:50:36;97902.97;;;13.87;100.00
60832;BME280;46665;51.558;-0.448;2023-10-19T04:53:20;97895.50;;;13.84;100.00
60832;BME280;46665;51.558;-0.448;2023-10-19T04:56:05;97899.09;;;13.88;100.00
60832;BME280;46665;51.558;-0.448;2023-10-19T04:58:52;97899.09;;;13.88;100.00
60832;BME280;46665;51.558;-0.448;2023-10-19T05:01:36;97895.56;;;13.87;100.00
60832;BME280;46665;51.558;-0.448;2023-10-19T05:04:21;97890.88;;;13.88;100.00
60832;BME280;46665;51.558;-0.448;2023-10-19T05:07:04;97886.25;;;13.92;100.00
60832;BME280;46665;51.558;-0.448;2023-10-19T05:09:48;97887.41;;;13.91;100.00
60832;BME280;46665;51.558;-0.448;2023-10-19T05:12:32;97883.81;;;13.87;100.00
60832;BME280;46665;51.558;-0.448;2023-10-19T05:15:17;97876.13;;;13.93;100.00
60832;BME280;46665;51.558;-0.448;2023-10-19T05:18:02;97876.81;;;13.86;100.00
60832;BME280;46665;51.558;-0.448;2023-10-19T05:20:49;97884.69;;;13.91;100.00
60832;BME280;46665;51.558;-0.448;2023-10-19T05:23:34;97891.72;;;13.92;100.00
60832;BME280;46665;51.558;-0.448;2023-10-19T05:26:18;97887.41;;;13.91;100.00
60832;BME280;46665;51.558;-0.448;2023-10-19T05:29:03;97878.44;;;13.91;100.00
60832;BME280;46665;51.558;-0.448;2023-10-19T05:31:47;97883.50;;;13.92;100.00
60832;BME280;46665;51.558;-0.448;2023-10-19T05:34:37;97887.41;;;13.91;100.00
60832;BME280;46665;51.558;-0.448;2023-10-19T05:37:21;97884.25;;;13.89;100.00
60832;BME280;46665;51.558;-0.448;2023-10-19T05:40:05;97882.31;;;13.90;100.00
60832;BME280;46665;51.558;-0.448;2023-10-19T05:42:49;97891.72;;;13.92;100.00
60832;BME280;46665;51.558;-0.448;2023-10-19T05:45:34;97885.53;;;13.95;100.00
60832;BME280;46665;51.558;-0.448;2023-10-19T05:48:20;97896.84;;;13.97;100.00
60832;BME280;46665;51.558;-0.448;2023-10-19T05:51:04;97886.66;;;13.94;100.00
60832;BME280;46665;51.558;-0.448;2023-10-19T05:53:48;97883.50;;;13.92;100.00
60832;BME280;46665;51.558;-0.448;2023-10-19T05:56:32;97884.69;;;13.91;100.00
60832;BME280;46665;51.558;-0.448;2023-10-19T05:59:18;97881.97;;;13.95;100.00
60832;BME280;46665;51.558;-0.448;2023-10-19T06:02:02;97882.72;;;13.92;100.00
60832;BME280;46665;51.558;-0.448;2023-10-19T06:04:46;97887.41;;;13.91;100.00
60832;BME280;46665;51.558;-0.448;2023-10-19T06:07:30;97879.97;;;13.88;100.00
60832;BME280;46665;51.558;-0.448;2023-10-19T06:10:17;97888.97;;;13.92;100.00
60832;BME280;46665;51.558;-0.448;2023-10-19T06:13:01;97879.56;;;13.90;100.00
60832;BME280;46665;51.558;-0.448;2023-10-19T06:15:48;97878.34;;;13.87;100.00
60832;BME280;46665;51.558;-0.448;2023-10-19T06:18:31;97881.47;;;13.85;100.00
60832;BME280;46665;51.558;-0.448;2023-10-19T06:21:20;97877.91;;;13.81;100.00
60832;BME280;46665;51.558;-0.448;2023-10-19T06:24:04;97884.16;;;13.82;100.00
60832;BME280;46665;51.558;-0.448;2023-10-19T06:26:48;97877.88;;;13.78;100.00
60832;BME280;46665;51.558;-0.448;2023-10-19T06:29:32;97886.88;;;13.82;100.00
60832;BME280;46665;51.558;-0.448;2023-10-19T06:32:16;97891.16;;;13.79;100.00
60832;BME280;46665;51.558;-0.448;2023-10-19T06:35:01;97891.53;;;13.78;100.00
60832;BME280;46665;51.558;-0.448;2023-10-19T06:37:46;97887.22;;;13.77;100.00
60832;BME280;46665;51.558;-0.448;2023-10-19T06:40:30;97891.53;;;13.78;100.00
60832;BME280;46665;51.558;-0.448;2023-10-19T06:43:17;97884.47;;;13.77;100.00
60832;BME280;46665;51.558;-0.448;2023-10-19T06:46:01;97894.97;;;13.75;100.00
60832;BME280;46665;51.558;-0.448;2023-10-19T06:48:45;97885.63;;;13.76;100.00
60832;BME280;46665;51.558;-0.448;2023-10-19T06:51:30;97884.03;;;13.75;100.00
60832;BME280;46665;51.558;-0.448;2023-10-19T06:54:16;97887.59;;;13.75;100.00
60832;BME280;46665;51.558;-0.448;2023-10-19T06:57:00;97882.91;;;13.76;100.00
60832;BME280;46665;51.558;-0.448;2023-10-19T06:59:46;97894.63;;;13.76;100.00
60832;BME280;46665;51.558;-0.448;2023-10-19T07:02:30;97886.06;;;13.78;100.00
60832;BME280;46665;51.558;-0.448;2023-10-19T07:05:16;97890.78;;;13.81;100.00
60832;BME280;46665;51.558;-0.448;2023-10-19T07:08:06;97892.78;;;13.84;100.00
60832;BME280;46665;51.558;-0.448;2023-10-19T07:10:50;97885.34;;;13.84;100.00
60832;BME280;46665;51.558;-0.448;2023-10-19T07:13:34;97888.09;;;13.84;100.00
60832;BME280;46665;51.558;-0.448;2023-10-19T07:16:18;97886.53;;;13.83;100.00
60832;BME280;46665;51.558;-0.448;2023-10-19T07:19:03;97883.13;;;13.90;100.00
60832;BME280;46665;51.558;-0.448;2023-10-19T07:21:48;97890.50;;;13.90;100.00
60832;BME280;46665;51.558;-0.448;2023-10-19T07:24:33;97888.59;;;13.90;100.00
60832;BME280;46665;51.558;-0.448;2023-10-19T07:27:20;97893.31;;;13.93;100.00
60832;BME280;46665;51.558;-0.448;2023-10-19T07:30:05;97884.69;;;13.91;100.00
60832;BME280;46665;51.558;-0.448;2023-10-19T07:32:53;97900.34;;;13.94;100.00
60832;BME280;46665;51.558;-0.448;2023-10-19T07:35:43;97894.13;;;13.97;100.00
60832;BME280;46665;51.558;-0.448;2023-10-19T07:38:30;97891.78;;;13.96;100.00
60832;BME280;46665;51.558;-0.448;2023-10-19T07:41:17;97892.97;;;13.98;100.00
60832;BME280;46665;51.558;-0.448;2023-10-19T07:44:01;97889.84;;;14.00;100.00
60832;BME280;46665;51.558;-0.448;2023-10-19T07:46:46;97886.34;;;13.99;100.00
60832;BME280;46665;51.558;-0.448;2023-10-19T07:49:30;97888.72;;;14.01;100.00
60832;BME280;46665;51.558;-0.448;2023-10-19T07:52:14;97901.63;;;14.04;100.00
60832;BME280;46665;51.558;-0.448;2023-10-19T07:54:58;97893.47;;;14.07;100.00
60832;BME280;46665;51.558;-0.448;2023-10-19T07:57:42;97892.69;;;14.07;100.00
60832;BME280;46665;51.558;-0.448;2023-10-19T08:00:26;97891.91;;;14.06;100.00
60832;BME280;46665;51.558;-0.448;2023-10-19T08:03:13;97893.53;;;14.11;100.00
60832;BME280;46665;51.558;-0.448;2023-10-19T08:05:59;97885.75;;;14.13;100.00
60832;BME280;46665;51.558;-0.448;2023-10-19T08:08:43;97892.81;;;14.18;100.00
60832;BME280;46665;51.558;-0.448;2023-10-19T08:11:27;97881.09;;;14.17;100.00
60832;BME280;46665;51.558;-0.448;2023-10-19T08:14:11;97886.56;;;14.17;100.00
60832;BME280;46665;51.558;-0.448;2023-10-19T08:16:55;97883.06;;;14.20;100.00
60832;BME280;46665;51.558;-0.448;2023-10-19T08:19:40;97880.34;;;14.20;100.00
60832;BME280;46665;51.558;-0.448;2023-10-19T08:22:24;97876.88;;;14.23;100.00
60832;BME280;46665;51.558;-0.448;2023-10-19T08:25:11;97881.22;;;14.28;100.00
60832;BME280;46665;51.558;-0.448;2023-10-19T08:28:01;97878.09;;;14.26;100.00
60832;BME280;46665;51.558;-0.448;2023-10-19T08:30:45;97883.56;;;14.26;100.00
60832;BME280;46665;51.558;-0.448;2023-10-19T08:33:40;97877.34;;;14.29;100.00
60832;BME280;46665;51.558;-0.448;2023-10-19T08:36:25;97877.69;;;14.27;100.00
60832;BME280;46665;51.558;-0.448;2023-10-19T08:39:10;97881.28;;;14.31;100.00
60832;BME280;46665;51.558;-0.448;2023-10-19T08:41:57;97879.38;;;14.36;100.00
60832;BME280;46665;51.558;-0.448;2023-10-19T08:44:42;97878.97;;;14.37;100.00
60832;BME280;46665;51.558;-0.448;2023-10-19T08:47:27;97884.09;;;14.39;100.00
60832;BME280;46665;51.558;-0.448;2023-10-19T08:50:12;97875.50;;;14.40;100.00
60832;BME280;46665;51.558;-0.448;2023-10-19T08:52:58;97887.25;;;14.41;100.00
60832;BME280;46665;51.558;-0.448;2023-10-19T08:55:42;97878.22;;;14.37;100.00
60832;BME280;46665;51.558;-0.448;2023-10-19T08:58:27;97878.22;;;14.40;100.00
60832;BME280;46665;51.558;-0.448;2023-10-19T09:01:11;97879.81;;;14.41;100.00
60832;BME280;46665;51.558;-0.448;2023-10-19T09:03:59;97886.91;;;14.46;100.00
60832;BME280;46665;51.558;-0.448;2023-10-19T09:06:43;97889.31;;;14.51;100.00
60832;BME280;46665;51.558;-0.448;2023-10-19T09:09:28;97882.72;;;14.56;100.00
60832;BME280;46665;51.558;-0.448;2023-10-19T09:12:16;97884.41;;;14.64;100.00
60832;BME280;46665;51.558;-0.448;2023-10-19T09:15:00;97878.13;;;14.63;100.00
60832;BME280;46665;51.558;-0.448;2023-10-19T09:17:44;97874.19;;;14.61;100.00
60832;BME280;46665;51.558;-0.448;2023-10-19T09:20:30;97876.97;;;14.64;100.00
60832;BME280;46665;51.558;-0.448;2023-10-19T09:23:15;97875.78;;;14.62;100.00
60832;BME280;46665;51.558;-0.448;2023-10-19T09:26:00;97875.44;;;14.67;100.00
60832;BME280;46665;51.558;-0.448;2023-10-19T09:28:48;97880.91;;;14.67;100.00
60832;BME280;46665;51.558;-0.448;2023-10-19T09:31:32;97880.91;;;14.67;100.00
60832;BME280;46665;51.558;-0.448;2023-10-19T09:34:16;97887.19;;;14.71;100.00
60832;BME280;46665;51.558;-0.448;2023-10-19T09:37:01;97881.28;;;14.65;100.00
60832;BME280;46665;51.558;-0.448;2023-10-19T09:39:46;97862.88;;;14.62;100.00
60832;BME280;46665;51.558;-0.448;2023-10-19T09:42:30;97888.00;;;14.71;100.00
60832;BME280;46665;51.558;-0.448;2023-10-19T09:45:19;97885.94;;;14.61;100.00
60832;BME280;46665;51.558;-0.448;2023-10-19T09:48:05;97882.00;;;14.59;100.00
60832;BME280;46665;51.558;-0.448;2023-10-19T09:50:58;97880.06;;;14.63;100.00
60832;BME280;46665;51.558;-0.448;2023-10-19T09:53:49;97875.03;;;14.68;100.00
60832;BME280;46665;51.558;-0.448;2023-10-19T09:56:45;97875.84;;;14.69;100.00
60832;BME280;46665;51.558;-0.448;2023-10-19T09:59:37;97867.63;;;14.69;100.00
60832;BME280;46665;51.558;-0.448;2023-10-19T10:02:22;97869.97;;;14.70;100.00
60832;BME280;46665;51.558;-0.448;2023-10-19T10:13:58;97884.44;;;14.67;100.00
60832;BME280;46665;51.558;-0.448;2023-10-19T10:16:43;97876.63;;;14.69;100.00
60832;BME280;46665;51.558;-0.448;2023-10-19T10:19:27;97877.00;;;14.68;100.00
60832;BME280;46665;51.558;-0.448;2023-10-19T10:22:11;97878.19;;;14.70;100.00
60832;BME280;46665;51.558;-0.448;2023-10-19T10:24:59;97886.00;;;14.68;100.00
60832;BME280;46665;51.558;-0.448;2023-10-19T10:27:51;97888.72;;;14.68;100.00
60832;BME280;46665;51.558;-0.448;2023-10-19T10:30:35;97884.84;;;14.69;100.00
60832;BME280;46665;51.558;-0.448;2023-10-19T10:33:38;97886.47;;;14.74;100.00
60832;BME280;46665;51.558;-0.448;2023-10-19T10:36:22;97879.03;;;14.74;100.00
60832;BME280;46665;51.558;-0.448;2023-10-19T10:39:07;97888.09;;;14.82;100.00
60832;BME280;46665;51.558;-0.448;2023-10-19T10:42:00;97884.25;;;14.87;100.00
60832;BME280;46665;51.558;-0.448;2023-10-19T10:44:45;97887.34;;;14.85;100.00
60832;BME280;46665;51.558;-0.448;2023-10-19T10:47:30;97883.47;;;14.90;100.00
60832;BME280;46665;51.558;-0.448;2023-10-19T10:50:19;97888.59;;;14.91;100.00
60832;BME280;46665;51.558;-0.448;2023-10-19T10:53:05;97883.13;;;14.91;100.00
60832;BME280;46665;51.558;-0.448;2023-10-19T10:55:49;97897.16;;;14.86;100.00
60832;BME280;46665;51.558;-0.448;2023-10-19T10:58:33;97890.84;;;14.86;100.00
60832;BME280;46665;51.558;-0.448;2023-10-19T11:01:30;97880.72;;;14.86;100.00
60832;BME280;46665;51.558;-0.448;2023-10-19T11:04:14;97874.84;;;14.88;100.00
60832;BME280;46665;51.558;-0.448;2023-10-19T11:07:00;97870.16;;;14.88;100.00
60832;BME280;46665;51.558;-0.448;2023-10-19T11:09:44;97871.34;;;14.91;100.00
60832;BME280;46665;51.558;-0.448;2023-10-19T11:12:29;97865.56;;;15.00;100.00
60832;BME280;46665;51.558;-0.448;2023-10-19T11:15:20;97866.38;;;15.04;100.00
60832;BME280;46665;51.558;-0.448;2023-10-19T11:18:06;97867.97;;;15.08;100.00
60832;BME280;46665;51.558;-0.448;2023-10-19T11:20:56;97855.84;;;15.06;100.00
60832;BME280;46665;51.558;-0.448;2023-10-19T11:23:52;97855.41;;;15.04;100.00
60832;BME280;46665;51.558;-0.448;2023-10-19T11:26:39;97855.41;;;15.04;100.00
60832;BME280;46665;51.558;-0.448;2023-10-19T11:29:24;97848.72;;;14.98;100.00
60832;BME280;46665;51.558;-0.448;2023-10-19T11:32:08;97841.78;;;15.07;100.00
60832;BME280;46665;51.558;-0.448;2023-10-19T11:34:56;97841.03;;;15.14;100.00
60832;BME280;46665;51.558;-0.448;2023-10-19T11:37:52;97839.13;;;15.18;100.00
60832;BME280;46665;51.558;-0.448;2023-10-19T11:40:36;97844.25;;;15.23;100.00
60832;BME280;46665;51.558;-0.448;2023-10-19T11:43:20;97839.53;;;15.20;100.00
60832;BME280;46665;51.558;-0.448;2023-10-19T11:46:06;97834.53;;;15.36;100.00
60832;BME280;46665;51.558;-0.448;2023-10-19T11:48:50;97830.34;;;15.53;100.00
60832;BME280;46665;51.558;-0.448;2023-10-19T11:51:34;97832.31;;;15.56;100.00
60832;BME280;46665;51.558;-0.448;2023-10-19T11:54:18;97833.09;;;15.50;100.00
60832;BME280;46665;51.558;-0.448;2023-10-19T11:57:02;97841.31;;;15.53;100.00
60832;BME280;46665;51.558;-0.448;2023-10-19T11:59:46;97834.66;;;15.54;100.00
60832;BME280;46665;51.558;-0.448;2023-10-19T12:02:36;97834.22;;;15.49;100.00
60832;BME280;46665;51.558;-0.448;2023-10-19T12:05:24;97840.13;;;15.51;100.00
60832;BME280;46665;51.558;-0.448;2023-10-19T12:08:08;97829.91;;;15.44;100.00
60832;BME280;46665;51.558;-0.448;2023-10-19T12:10:52;97825.94;;;15.34;100.00
60832;BME280;46665;51.558;-0.448;2023-10-19T12:13:36;97825.50;;;15.29;100.00
60832;BME280;46665;51.558;-0.448;2023-10-19T12:16:21;97817.25;;;15.25;100.00
60832;BME280;46665;51.558;-0.448;2023-10-19T12:19:07;97806.72;;;15.27;100.00
60832;BME280;46665;51.558;-0.448;2023-10-19T12:21:51;97812.59;;;15.29;100.00
60832;BME280;46665;51.558;-0.448;2023-10-19T12:24:35;97814.16;;;15.30;100.00
60832;BME280;46665;51.558;-0.448;2023-10-19T12:27:19;97815.72;;;15.28;100.00
60832;BME280;46665;51.558;-0.448;2023-10-19T12:30:04;97819.16;;;15.21;100.00
60832;BME280;46665;51.558;-0.448;2023-10-19T12:33:00;97811.31;;;15.16;100.00
60832;BME280;46665;51.558;-0.448;2023-10-19T12:35:45;97803.03;;;15.09;100.00
60832;BME280;46665;51.558;-0.448;2023-10-19T12:38:29;97808.94;;;15.11;100.00
60832;BME280;46665;51.558;-0.448;2023-10-19T12:41:13;97808.63;;;15.20;100.00
60832;BME280;46665;51.558;-0.448;2023-10-19T12:43:58;97809.84;;;15.29;100.00
60832;BME280;46665;51.558;-0.448;2023-10-19T12:46:44;97815.78;;;15.38;100.00
60832;BME280;46665;51.558;-0.448;2023-10-19T12:49:28;97813.44;;;15.37;100.00
60832;BME280;46665;51.558;-0.448;2023-10-19T12:52:12;97804.81;;;15.38;100.00
60832;BME280;46665;51.558;-0.448;2023-10-19T12:54:55;97785.00;;;15.67;100.00
60832;BME280;46665;51.558;-0.448;2023-10-19T12:57:44;97775.31;;;15.87;100.00
60832;BME280;46665;51.558;-0.448;2023-10-19T13:00:28;97768.72;;;15.99;100.00
60832;BME280;46665;51.558;-0.448;2023-10-19T13:03:20;97776.56;;;16.04;100.00
60832;BME280;46665;51.558;-0.448;2023-10-19T13:06:05;97762.47;;;16.09;100.00
60832;BME280;46665;51.558;-0.448;2023-10-19T13:08:50;97755.81;;;16.14;100.00
60832;BME280;46665;51.558;-0.448;2023-10-19T13:11:34;97768.75;;;16.17;100.00
60832;BME280;46665;51.558;-0.448;2023-10-19T13:14:18;97752.69;;;16.22;100.00
60832;BME280;46665;51.558;-0.448;2023-10-19T13:17:02;97766.03;;;16.20;100.00
60832;BME280;46665;51.558;-0.448;2023-10-19T13:19:47;97757.44;;;16.25;100.00
60832;BME280;46665;51.558;-0.448;2023-10-19T13:22:34;97774.66;;;16.30;100.00
60832;BME280;46665;51.558;-0.448;2023-10-19T13:25:18;97777.38;;;16.22;100.00
60832;BME280;46665;51.558;-0.448;2023-10-19T13:28:13;97773.06;;;16.14;100.00
60832;BME280;46665;51.558;-0.448;2023-10-19T13:30:57;97774.63;;;16.08;100.00
60832;BME280;46665;51.558;-0.448;2023-10-19T13:33:41;97774.19;;;15.95;100.00
60832;BME280;46665;51.558;-0.448;2023-10-19T13:36:25;97778.09;;;15.91;100.00
60832;BME280;46665;51.558;-0.448;2023-10-19T13:39:09;97776.09;;;15.80;100.00
60832;BME280;46665;51.558;-0.448;2023-10-19T13:41:56;97794.88;;;15.82;100.00
60832;BME280;46665;51.558;-0.448;2023-10-19T13:44:41;97781.84;;;15.65;100.00
60832;BME280;46665;51.558;-0.448;2023-10-19T13:47:25;97790.16;;;15.75;100.00
60832;BME280;46665;51.558;-0.448;2023-10-19T13:50:10;97794.88;;;15.78;100.00
60832;BME280;46665;51.558;-0.448;2023-10-19T13:52:55;97797.63;;;15.82;100.00
60832;BME280;46665;51.558;-0.448;2023-10-19T13:55:41;97785.91;;;15.92;100.00
60832;BME280;46665;51.558;-0.448;2023-10-19T13:58:25;97794.09;;;15.81;100.00
60832;BME280;46665;51.558;-0.448;2023-10-19T14:01:10;97784.72;;;15.82;100.00
60832;BME280;46665;51.558;-0.448;2023-10-19T14:03:54;97775.28;;;15.76;100.00
60832;BME280;46665;51.558;-0.448;2023-10-19T14:06:40;97785.06;;;15.74;100.00
60832;BME280;46665;51.558;-0.448;2023-10-19T14:09:26;97773.66;;;15.68;100.00
60832;BME280;46665;51.558;-0.448;2023-10-19T14:12:11;97765.06;;;15.70;100.00
60832;BME280;46665;51.558;-0.448;2023-10-19T14:14:56;97766.22;;;15.69;100.00
60832;BME280;46665;51.558;-0.448;2023-10-19T14:17:41;97760.72;;;15.69;100.00
60832;BME280;46665;51.558;-0.448;2023-10-19T14:20:25;97755.25;;;15.65;100.00
60832;BME280;46665;51.558;-0.448;2023-10-19T14:23:10;97756.81;;;15.63;100.00
60832;BME280;46665;51.558;-0.448;2023-10-19T14:25:54;97756.00;;;15.62;100.00
60832;BME280;46665;51.558;-0.448;2023-10-19T14:28:38;97755.22;;;15.61;100.00